X  Schlie├čen METAR Luftfahrt Wetterdaten     LYNI Nis Airport
Temperatur
19°C Temperatur
14°C Taupunkt
73% Feuchtigkeit



Wind
5 KM/S
3 MPS
1 M/S
3 KTS



280°
W
Aktuelle Wetterlage

Meistens vereinzelte Wolken Meistens vereinzelte Wolken
Luftdruck 1022.92 (hPa) - 30.21 (inHg)
Sichtweite 6.2 (Meile) - 10 (Km)
Flughafen
Flughafen Code LYNI

Position : Nis Airport
Entfernung: 63 (Km)

Metar:
LYNI 011530Z 28003KT 230V020 9999 SCT040 19/14 Q1023 NOSIG

Zeit: 01-10-2023 17:30 CEST